createdAt,value
2023-05-15T00:00:47.691Z,13.49
2023-05-15T00:03:16.359Z,13.49
2023-05-15T00:05:44.519Z,13.48
2023-05-15T00:08:12.484Z,13.36
2023-05-15T00:10:44.896Z,13.25
2023-05-15T00:13:18.942Z,13.21
2023-05-15T00:15:48.418Z,12.86
2023-05-15T00:18:16.374Z,12.88
2023-05-15T00:20:44.278Z,12.65
2023-05-15T00:23:12.204Z,12.22
2023-05-15T00:25:40.108Z,12.36
2023-05-15T00:28:08.003Z,12.52
2023-05-15T00:30:35.882Z,12.87
2023-05-15T00:33:05.443Z,13.00
2023-05-15T00:35:33.772Z,13.10
2023-05-15T00:38:01.772Z,12.89
2023-05-15T00:40:30.045Z,12.86
2023-05-15T00:42:58.331Z,12.94
2023-05-15T00:45:26.642Z,12.87
2023-05-15T00:47:55.441Z,12.72
2023-05-15T00:50:25.167Z,12.66
2023-05-15T00:52:53.067Z,12.55
2023-05-15T00:55:21.043Z,12.77
2023-05-15T00:57:49.312Z,13.01
2023-05-15T01:00:18.657Z,13.24
2023-05-15T01:02:47.268Z,13.37
2023-05-15T01:05:15.240Z,13.51
2023-05-15T01:07:50.438Z,13.45
2023-05-15T01:10:19.444Z,13.44
2023-05-15T01:12:48.177Z,13.45
2023-05-15T01:15:16.082Z,13.27
2023-05-15T01:17:43.980Z,13.11
2023-05-15T01:20:13.312Z,12.89
2023-05-15T01:22:54.202Z,12.81
2023-05-15T01:25:46.037Z,12.90
2023-05-15T01:28:17.361Z,12.96
2023-05-15T01:30:46.609Z,12.92
2023-05-15T01:33:19.883Z,12.83
2023-05-15T01:35:52.135Z,12.69
2023-05-15T01:38:28.370Z,12.66
2023-05-15T01:41:03.349Z,12.65
2023-05-15T01:43:33.919Z,12.72
2023-05-15T01:46:02.024Z,12.80
2023-05-15T01:48:30.118Z,12.47
2023-05-15T01:50:59.811Z,12.26
2023-05-15T01:53:28.348Z,12.29
2023-05-15T01:55:56.276Z,12.43
2023-05-15T01:58:26.065Z,12.61
2023-05-15T02:00:55.379Z,12.74
2023-05-15T02:03:23.504Z,12.80
2023-05-15T02:05:53.281Z,12.77
2023-05-15T02:08:22.172Z,12.53
2023-05-15T02:10:51.061Z,12.33
2023-05-15T02:13:19.284Z,11.90
2023-05-15T02:15:47.352Z,11.69
2023-05-15T02:18:16.765Z,11.59
2023-05-15T02:20:44.734Z,11.00
2023-05-15T02:23:12.639Z,11.27
2023-05-15T02:25:46.580Z,11.54
2023-05-15T02:28:18.682Z,11.59
2023-05-15T02:30:54.005Z,11.01
2023-05-15T02:33:29.732Z,10.94
2023-05-15T02:36:00.921Z,11.25
2023-05-15T02:38:30.718Z,11.45
2023-05-15T02:40:59.419Z,11.73
2023-05-15T02:43:27.730Z,11.98
2023-05-15T02:45:55.756Z,12.10
2023-05-15T02:48:25.348Z,11.82
2023-05-15T02:50:53.284Z,11.67
2023-05-15T02:53:21.264Z,11.62
2023-05-15T02:55:49.231Z,11.51
2023-05-15T02:58:17.148Z,10.99
2023-05-15T03:00:45.056Z,10.83
2023-05-15T03:03:14.188Z,10.96
2023-05-15T03:05:43.459Z,11.29
2023-05-15T03:08:11.371Z,11.56
2023-05-15T03:10:39.330Z,11.72
2023-05-15T03:13:07.249Z,11.81
2023-05-15T03:15:35.193Z,11.88
2023-05-15T03:18:03.200Z,11.98
2023-05-15T03:20:31.162Z,12.02
2023-05-15T03:23:00.841Z,12.01
2023-05-15T03:25:28.797Z,11.85
2023-05-15T03:27:56.671Z,11.72
2023-05-15T03:30:24.619Z,11.64
2023-05-15T03:32:52.586Z,11.63
2023-05-15T03:35:20.595Z,11.49
2023-05-15T03:37:48.499Z,11.57
2023-05-15T03:40:17.989Z,11.64
2023-05-15T03:42:45.851Z,11.74
2023-05-15T03:45:13.744Z,11.75
2023-05-15T03:47:43.007Z,11.81
2023-05-15T03:50:11.830Z,11.78
2023-05-15T03:52:40.799Z,11.69
2023-05-15T03:55:10.379Z,11.36
2023-05-15T03:57:41.544Z,11.17
2023-05-15T04:00:11.084Z,11.19
2023-05-15T04:02:39.551Z,11.06
2023-05-15T04:05:08.627Z,11.34
2023-05-15T04:07:37.582Z,11.55
2023-05-15T04:10:06.073Z,11.58
2023-05-15T04:12:35.929Z,11.60
2023-05-15T04:15:17.208Z,11.65
2023-05-15T04:17:45.489Z,11.67
2023-05-15T04:20:15.339Z,11.65
2023-05-15T04:22:43.269Z,11.51
2023-05-15T04:25:12.028Z,11.27
2023-05-15T04:27:40.083Z,11.20
2023-05-15T04:30:09.749Z,11.12
2023-05-15T04:32:39.635Z,10.92
2023-05-15T04:35:10.261Z,10.91
2023-05-15T04:37:38.434Z,11.00
2023-05-15T04:40:08.136Z,11.22
2023-05-15T04:42:37.685Z,11.37
2023-05-15T04:45:08.090Z,11.66
2023-05-15T04:47:36.137Z,11.77
2023-05-15T04:50:06.716Z,11.83
2023-05-15T04:52:34.666Z,11.85
2023-05-15T04:55:02.881Z,11.85
2023-05-15T04:57:31.089Z,11.89
2023-05-15T04:59:59.188Z,11.93
2023-05-15T05:02:27.367Z,11.86
2023-05-15T05:04:55.385Z,11.75
2023-05-15T05:07:24.689Z,11.83
2023-05-15T05:09:52.616Z,12.02
2023-05-15T05:12:20.502Z,12.07
2023-05-15T05:14:48.368Z,12.13
2023-05-15T05:17:16.292Z,12.29
2023-05-15T05:19:44.241Z,12.46
2023-05-15T05:22:12.300Z,12.61
2023-05-15T05:24:41.623Z,12.72
2023-05-15T05:27:09.637Z,12.79
2023-05-15T05:29:37.519Z,12.77
2023-05-15T05:32:06.030Z,12.82
2023-05-15T05:34:34.001Z,12.77
2023-05-15T05:37:01.996Z,12.76
2023-05-15T05:39:29.908Z,12.87
2023-05-15T05:41:59.197Z,12.94
2023-05-15T05:44:27.141Z,13.03
2023-05-15T05:46:55.124Z,13.05
2023-05-15T05:49:23.023Z,13.08
2023-05-15T05:51:50.944Z,13.08
2023-05-15T05:54:19.268Z,13.13
2023-05-15T05:56:47.414Z,13.23
2023-05-15T05:59:16.714Z,13.37
2023-05-15T06:01:44.678Z,13.58
2023-05-15T06:04:12.631Z,13.86
2023-05-15T06:06:41.270Z,13.96
2023-05-15T06:09:09.446Z,13.98
2023-05-15T06:11:37.372Z,14.05
2023-05-15T06:14:05.293Z,14.23
2023-05-15T06:16:34.570Z,14.32
2023-05-15T06:19:02.678Z,14.26
2023-05-15T06:21:30.637Z,14.29
2023-05-15T06:23:59.257Z,14.46
2023-05-15T06:26:27.242Z,14.61
2023-05-15T06:28:55.135Z,14.83
2023-05-15T06:31:23.127Z,14.94
2023-05-15T06:33:52.444Z,15.05
2023-05-15T06:36:20.633Z,15.19
2023-05-15T06:38:48.564Z,15.35
2023-05-15T06:41:16.444Z,15.46
2023-05-15T06:43:44.423Z,15.58
2023-05-15T06:46:12.330Z,15.66
2023-05-15T06:48:40.312Z,15.86
2023-05-15T06:51:09.631Z,16.02
2023-05-15T06:53:37.623Z,16.14
2023-05-15T06:56:06.265Z,16.43
2023-05-15T06:58:34.605Z,16.47
2023-05-15T07:01:03.879Z,16.50
2023-05-15T07:03:31.833Z,16.71
2023-05-15T07:05:59.760Z,16.80
2023-05-15T07:08:29.051Z,16.92
2023-05-15T07:10:56.974Z,17.02
2023-05-15T07:13:24.883Z,17.15
2023-05-15T07:15:52.796Z,17.19
2023-05-15T07:18:20.778Z,17.17
2023-05-15T07:20:48.708Z,17.28
2023-05-15T07:23:16.603Z,17.47
2023-05-15T07:25:46.178Z,17.63
2023-05-15T07:28:14.163Z,17.79
2023-05-15T07:30:42.316Z,17.78
2023-05-15T07:33:10.219Z,17.85
2023-05-15T07:35:38.168Z,17.98
2023-05-15T07:38:06.164Z,18.09
2023-05-15T07:40:34.376Z,18.28
2023-05-15T07:43:03.680Z,18.37
2023-05-15T07:45:31.600Z,18.49
2023-05-15T07:47:59.691Z,18.42
2023-05-15T07:50:27.687Z,18.26
2023-05-15T07:52:55.827Z,18.67
2023-05-15T07:55:23.907Z,18.83
2023-05-15T07:57:54.052Z,19.00
2023-05-15T08:00:23.746Z,19.02
2023-05-15T08:02:51.800Z,18.83
2023-05-15T08:05:19.901Z,18.95
2023-05-15T08:07:47.808Z,19.07
2023-05-15T08:10:15.746Z,19.42
2023-05-15T08:12:46.571Z,19.59
2023-05-15T08:15:14.786Z,19.75
2023-05-15T08:17:44.246Z,19.88
2023-05-15T08:20:13.249Z,19.93
2023-05-15T08:22:41.448Z,20.08
2023-05-15T08:25:10.216Z,20.06
2023-05-15T08:27:38.149Z,20.25
2023-05-15T08:30:07.367Z,20.24
2023-05-15T08:32:35.536Z,20.25
2023-05-15T08:35:05.198Z,20.42
2023-05-15T08:37:33.811Z,20.26
2023-05-15T08:40:01.766Z,20.56
2023-05-15T08:42:34.611Z,20.48
2023-05-15T08:45:02.841Z,20.70
2023-05-15T08:47:30.898Z,20.84
2023-05-15T08:50:04.946Z,20.82
2023-05-15T08:52:35.132Z,20.73
2023-05-15T08:55:04.020Z,20.96
2023-05-15T08:57:32.194Z,21.11
2023-05-15T09:00:00.582Z,21.39
2023-05-15T09:02:28.549Z,21.55
2023-05-15T09:04:56.765Z,21.43
2023-05-15T09:07:24.949Z,21.62
2023-05-15T09:09:55.046Z,21.61
2023-05-15T09:12:25.452Z,21.80
2023-05-15T09:14:53.998Z,21.88
2023-05-15T09:17:22.032Z,22.04
2023-05-15T09:19:49.960Z,22.10
2023-05-15T09:22:23.219Z,22.11
2023-05-15T09:24:53.186Z,22.13
2023-05-15T09:27:22.627Z,22.10
2023-05-15T09:29:51.831Z,22.33
2023-05-15T09:32:19.954Z,22.33
2023-05-15T09:34:47.943Z,22.38
2023-05-15T09:37:31.152Z,22.35
2023-05-15T09:40:09.637Z,22.07
2023-05-15T09:42:41.841Z,22.57
2023-05-15T09:45:18.861Z,22.86
2023-05-15T09:47:47.594Z,23.03
2023-05-15T09:50:22.019Z,23.11
2023-05-15T09:52:50.123Z,23.12
2023-05-15T09:55:20.000Z,23.15
2023-05-15T09:58:05.624Z,23.35
2023-05-15T10:00:33.663Z,22.77
2023-05-15T10:03:03.437Z,22.90
2023-05-15T10:05:42.510Z,23.44
2023-05-15T10:08:12.783Z,23.61
2023-05-15T10:10:40.834Z,23.15
2023-05-15T10:13:10.863Z,23.21
2023-05-15T10:15:39.764Z,23.74
2023-05-15T10:18:07.990Z,23.80
2023-05-15T10:20:36.648Z,23.67
2023-05-15T10:23:06.149Z,23.76
2023-05-15T10:25:37.935Z,23.71
2023-05-15T10:28:09.469Z,23.89
2023-05-15T10:30:37.795Z,23.92
2023-05-15T10:33:06.352Z,23.96
2023-05-15T10:35:36.275Z,22.57
2023-05-15T10:38:06.150Z,23.13
2023-05-15T10:40:34.758Z,23.74
2023-05-15T10:43:02.677Z,24.16
2023-05-15T10:45:32.388Z,23.74
2023-05-15T10:48:03.643Z,23.69
2023-05-15T10:50:31.760Z,23.67
2023-05-15T10:52:59.717Z,24.27
2023-05-15T10:55:27.679Z,24.11
2023-05-15T10:57:56.021Z,23.63
2023-05-15T11:00:28.001Z,24.33
2023-05-15T11:02:58.814Z,24.25
2023-05-15T11:05:27.413Z,24.77
2023-05-15T11:08:28.702Z,24.91
2023-05-15T11:10:56.787Z,25.06
2023-05-15T11:13:24.726Z,25.33
2023-05-15T11:15:52.716Z,25.45
2023-05-15T11:18:22.640Z,25.16
2023-05-15T11:21:11.293Z,25.50
2023-05-15T11:23:40.606Z,25.54
2023-05-15T11:26:08.564Z,25.42
2023-05-15T11:28:44.000Z,24.81
2023-05-15T11:31:12.085Z,24.94
2023-05-15T11:33:42.417Z,25.57
2023-05-15T11:36:10.505Z,25.83
2023-05-15T11:38:40.096Z,25.10
2023-05-15T11:41:27.626Z,25.30
2023-05-15T11:43:55.833Z,25.29
2023-05-15T11:46:24.102Z,25.48
2023-05-15T11:48:53.965Z,24.84
2023-05-15T11:51:25.058Z,25.06
2023-05-15T11:53:54.676Z,24.33
2023-05-15T11:56:24.322Z,23.48
2023-05-15T11:58:52.828Z,24.06
2023-05-15T12:01:21.301Z,24.45
2023-05-15T12:03:50.255Z,23.09
2023-05-15T12:06:19.864Z,23.43
2023-05-15T12:08:53.117Z,24.79
2023-05-15T12:11:23.740Z,25.33
2023-05-15T12:13:53.744Z,24.63
2023-05-15T12:16:27.684Z,23.63
2023-05-15T12:18:58.076Z,24.27
2023-05-15T12:21:29.230Z,24.39
2023-05-15T12:26:43.515Z,23.78
2023-05-15T12:29:11.461Z,23.11
2023-05-15T12:31:39.554Z,23.10
2023-05-15T12:34:07.841Z,22.27
2023-05-15T12:36:40.132Z,22.35
2023-05-15T12:39:09.183Z,22.08
2023-05-15T12:41:38.391Z,21.95
2023-05-15T12:44:06.935Z,21.92
2023-05-15T12:46:34.973Z,21.54
2023-05-15T12:49:03.016Z,21.67
2023-05-15T12:51:30.991Z,22.15
2023-05-15T12:54:00.338Z,21.38
2023-05-15T12:56:30.900Z,21.34
2023-05-15T12:58:58.957Z,21.15
2023-05-15T13:01:27.527Z,21.30
2023-05-15T13:03:55.824Z,21.05
2023-05-15T13:06:24.309Z,21.24
2023-05-15T13:08:52.758Z,21.90
2023-05-15T13:11:22.501Z,21.04
2023-05-15T13:13:55.079Z,20.81
2023-05-15T13:16:24.008Z,20.84
2023-05-15T13:18:52.199Z,20.41
2023-05-15T13:21:20.209Z,20.67
2023-05-15T13:23:48.243Z,20.72
2023-05-15T13:26:16.177Z,20.40
2023-05-15T13:28:45.471Z,20.45
2023-05-15T13:31:13.611Z,20.16
2023-05-15T13:33:41.924Z,20.38
2023-05-15T13:36:10.096Z,20.99
2023-05-15T13:38:38.032Z,21.45
2023-05-15T13:41:06.107Z,21.13
2023-05-15T13:43:34.046Z,21.66
2023-05-15T13:46:03.449Z,21.31
2023-05-15T13:48:31.385Z,21.26
2023-05-15T13:50:59.314Z,20.77
2023-05-15T13:53:27.294Z,20.64
2023-05-15T13:55:55.300Z,20.55
2023-05-15T13:58:26.499Z,20.36
2023-05-15T14:00:54.617Z,21.05
2023-05-15T14:03:24.079Z,20.45
2023-05-15T14:05:52.861Z,20.50
2023-05-15T14:08:21.171Z,20.38
2023-05-15T14:10:49.185Z,21.12
2023-05-15T14:13:17.102Z,21.47
2023-05-15T14:15:45.019Z,22.47
2023-05-15T14:18:12.949Z,23.11
2023-05-15T14:20:42.310Z,23.51
2023-05-15T14:23:10.200Z,23.33
2023-05-15T14:25:38.142Z,22.72
2023-05-15T14:28:06.060Z,22.62
2023-05-15T14:30:33.996Z,22.81
2023-05-15T14:33:01.966Z,22.79
2023-05-15T14:35:29.935Z,23.23
2023-05-15T14:37:59.541Z,23.68
2023-05-15T14:40:27.689Z,23.99
2023-05-15T14:42:55.770Z,23.58
2023-05-15T14:45:24.009Z,23.47
2023-05-15T14:47:52.144Z,23.64
2023-05-15T14:50:20.083Z,23.87
2023-05-15T14:52:47.979Z,23.91
2023-05-15T14:55:22.065Z,23.13
2023-05-15T14:57:50.193Z,23.86
2023-05-15T15:00:18.858Z,23.92
2023-05-15T15:02:47.127Z,22.73
2023-05-15T15:05:15.120Z,22.78
2023-05-15T15:08:03.711Z,20.47
2023-05-15T15:10:33.728Z,20.99
2023-05-15T15:13:02.223Z,22.14
2023-05-15T15:15:32.492Z,21.91
2023-05-15T15:18:01.045Z,21.23
2023-05-15T15:20:29.723Z,21.76
2023-05-15T15:22:57.654Z,20.68
2023-05-15T15:25:25.767Z,20.64
2023-05-15T15:27:55.042Z,19.83
2023-05-15T15:30:23.027Z,20.09
2023-05-15T15:32:51.294Z,20.59
2023-05-15T15:35:19.483Z,20.72
2023-05-15T15:37:47.399Z,19.89
2023-05-15T15:40:15.359Z,21.44
2023-05-15T15:42:43.290Z,20.97
2023-05-15T15:45:13.866Z,21.97
2023-05-15T15:47:41.975Z,21.76
2023-05-15T15:50:10.595Z,20.84
2023-05-15T15:52:38.545Z,20.39
2023-05-15T15:55:07.603Z,19.77
2023-05-15T15:57:35.535Z,19.42
2023-05-15T16:00:03.722Z,20.29
2023-05-15T16:02:33.012Z,19.89
2023-05-15T16:05:01.110Z,19.08
2023-05-15T16:07:29.048Z,20.18
2023-05-15T16:10:10.770Z,18.80
2023-05-15T16:12:42.350Z,19.10
2023-05-15T16:17:43.386Z,18.59
2023-05-15T16:20:11.878Z,18.73
2023-05-15T16:22:41.710Z,19.32
2023-05-15T16:25:10.208Z,19.07
2023-05-15T16:27:38.187Z,18.69
2023-05-15T16:30:06.960Z,19.21
2023-05-15T16:32:34.893Z,19.29
2023-05-15T16:35:04.495Z,18.41
2023-05-15T16:37:32.613Z,19.09
2023-05-15T16:40:00.798Z,19.65
2023-05-15T16:42:28.991Z,18.99
2023-05-15T16:44:56.967Z,18.67
2023-05-15T16:47:24.988Z,18.90
2023-05-15T16:49:52.899Z,19.27
2023-05-15T16:52:24.889Z,19.64
2023-05-15T16:54:55.477Z,19.90
2023-05-15T16:57:26.316Z,20.42
2023-05-15T16:59:54.468Z,19.13
2023-05-15T17:02:22.606Z,19.29
2023-05-15T17:04:50.809Z,19.56
2023-05-15T17:07:18.763Z,19.32
2023-05-15T17:09:48.034Z,18.14
2023-05-15T17:12:15.925Z,17.70
2023-05-15T17:14:43.908Z,17.59
2023-05-15T17:17:11.768Z,18.62
2023-05-15T17:19:39.712Z,18.20
2023-05-15T17:22:07.624Z,18.84
2023-05-15T17:24:49.371Z,16.81
2023-05-15T17:27:20.933Z,17.19
2023-05-15T17:29:49.246Z,17.18
2023-05-15T17:32:17.760Z,17.54
2023-05-15T17:34:45.964Z,17.67
2023-05-15T17:37:14.655Z,17.27
2023-05-15T17:39:42.799Z,16.33
2023-05-15T17:42:10.713Z,16.26
2023-05-15T17:44:40.077Z,17.19
2023-05-15T17:47:08.629Z,16.76
2023-05-15T17:49:36.594Z,16.25
2023-05-15T17:52:04.732Z,15.21
2023-05-15T17:54:32.668Z,14.70
2023-05-15T17:57:00.627Z,15.00
2023-05-15T17:59:28.658Z,14.45
2023-05-15T18:01:58.170Z,14.88
2023-05-15T18:04:26.309Z,15.06
2023-05-15T18:06:54.307Z,15.30
2023-05-15T18:09:24.153Z,15.57
2023-05-15T18:11:52.881Z,14.75
2023-05-15T18:14:20.845Z,14.46
2023-05-15T18:16:48.743Z,14.36
2023-05-15T18:19:18.345Z,14.03
2023-05-15T18:21:46.331Z,14.47
2023-05-15T18:24:14.284Z,14.42
2023-05-15T18:26:42.211Z,14.20
2023-05-15T18:29:10.133Z,14.05
2023-05-15T18:31:38.084Z,13.61
2023-05-15T18:34:06.013Z,12.83
2023-05-15T18:36:35.685Z,13.19
2023-05-15T18:39:03.586Z,13.73
2023-05-15T18:41:31.491Z,14.15
2023-05-15T18:43:59.380Z,13.17
2023-05-15T18:46:28.418Z,12.89
2023-05-15T18:48:56.511Z,13.33
2023-05-15T18:51:24.690Z,12.79
2023-05-15T18:53:53.994Z,13.37
2023-05-15T18:56:22.718Z,13.42
2023-05-15T18:58:50.653Z,13.45
2023-05-15T19:01:18.576Z,14.14
2023-05-15T19:03:46.617Z,13.71
2023-05-15T19:06:19.747Z,14.22
2023-05-15T19:08:48.483Z,13.65
2023-05-15T19:11:17.885Z,13.38
2023-05-15T19:13:45.746Z,12.94
2023-05-15T19:16:13.806Z,12.84
2023-05-15T19:18:41.940Z,13.05
2023-05-15T19:21:10.041Z,13.27
2023-05-15T19:23:38.369Z,13.05
2023-05-15T19:26:06.276Z,12.25
2023-05-15T19:28:35.975Z,12.56
2023-05-15T19:31:04.438Z,12.93
2023-05-15T19:33:32.339Z,12.68
2023-05-15T19:36:00.241Z,12.33
2023-05-15T19:38:28.150Z,12.59
2023-05-15T19:40:56.072Z,12.98
2023-05-15T19:43:23.987Z,13.58
2023-05-15T19:45:53.283Z,13.26
2023-05-15T19:48:21.181Z,13.60
2023-05-15T19:50:49.111Z,12.94
2023-05-15T19:53:17.045Z,13.32
2023-05-15T19:55:44.956Z,12.61
2023-05-15T19:58:12.885Z,13.30
2023-05-15T20:00:41.231Z,12.98
2023-05-15T20:03:10.694Z,12.59
2023-05-15T20:05:40.805Z,12.99
2023-05-15T20:08:08.749Z,13.25
2023-05-15T20:10:36.669Z,13.07
2023-05-15T20:13:04.833Z,12.86
2023-05-15T20:15:33.385Z,12.96
2023-05-15T20:18:01.308Z,12.88
2023-05-15T20:20:31.172Z,12.45
2023-05-15T20:22:59.503Z,12.18
2023-05-15T20:25:29.028Z,12.56
2023-05-15T20:27:58.736Z,12.79
2023-05-15T20:30:28.096Z,13.00
2023-05-15T20:32:56.550Z,13.20
2023-05-15T20:35:25.166Z,13.06
2023-05-15T20:37:56.436Z,12.90
2023-05-15T20:40:26.047Z,12.38
2023-05-15T20:42:54.340Z,12.57
2023-05-15T20:45:22.680Z,12.52
2023-05-15T20:47:51.157Z,12.44
2023-05-15T20:50:19.336Z,12.85
2023-05-15T20:52:47.271Z,12.55
2023-05-15T20:55:19.727Z,12.72
2023-05-15T20:57:48.530Z,12.42
2023-05-15T21:00:17.357Z,13.00
2023-05-15T21:02:45.716Z,12.74
2023-05-15T21:05:13.756Z,11.85
2023-05-15T21:07:42.072Z,12.18
2023-05-15T21:10:10.462Z,11.78
2023-05-15T21:12:39.886Z,12.09
2023-05-15T21:15:09.132Z,12.21
2023-05-15T21:17:37.066Z,11.91
2023-05-15T21:20:05.706Z,12.10
2023-05-15T21:22:34.363Z,12.09
2023-05-15T21:25:02.493Z,12.17
2023-05-15T21:27:30.383Z,12.32
2023-05-15T21:29:59.701Z,12.54
2023-05-15T21:32:27.687Z,12.24
2023-05-15T21:34:55.618Z,11.78
2023-05-15T21:37:23.504Z,11.72
2023-05-15T21:39:51.414Z,12.01
2023-05-15T21:42:19.389Z,11.98
2023-05-15T21:44:47.308Z,11.73
2023-05-15T21:47:16.657Z,11.92
2023-05-15T21:49:44.626Z,12.37
2023-05-15T21:52:12.526Z,11.98
2023-05-15T21:54:40.466Z,12.56
2023-05-15T21:57:08.387Z,12.38
2023-05-15T21:59:36.384Z,12.02
2023-05-15T22:02:04.562Z,11.71
2023-05-15T22:04:34.352Z,11.86
2023-05-15T22:07:02.272Z,11.94
2023-05-15T22:09:30.243Z,12.28
2023-05-15T22:12:15.336Z,12.21
2023-05-15T22:14:54.428Z,12.20
2023-05-15T22:17:27.345Z,12.33
2023-05-15T22:20:02.649Z,12.24
2023-05-15T22:22:30.587Z,11.97
2023-05-15T22:24:58.513Z,11.90
2023-05-15T22:27:27.797Z,12.02
2023-05-15T22:29:55.887Z,12.12
2023-05-15T22:32:23.893Z,11.88
2023-05-15T22:34:51.934Z,11.72
2023-05-15T22:37:21.897Z,12.17
2023-05-15T22:39:49.848Z,12.01
2023-05-15T22:42:18.547Z,12.52
2023-05-15T22:44:46.494Z,12.17
2023-05-15T22:47:14.408Z,12.08
2023-05-15T22:49:42.352Z,11.99
2023-05-15T22:52:12.136Z,11.62
2023-05-15T22:55:17.117Z,11.62
2023-05-15T22:57:45.408Z,11.80
2023-05-15T23:00:14.696Z,12.11
2023-05-15T23:02:44.237Z,12.36
2023-05-15T23:05:12.855Z,12.53
2023-05-15T23:07:40.848Z,11.93
2023-05-15T23:10:11.005Z,11.95
2023-05-15T23:12:38.939Z,11.83
2023-05-15T23:15:07.580Z,11.86
2023-05-15T23:17:35.513Z,12.24
2023-05-15T23:20:03.564Z,12.20
2023-05-15T23:22:31.459Z,12.86
2023-05-15T23:24:59.352Z,12.66
2023-05-15T23:27:28.686Z,12.48
2023-05-15T23:29:56.638Z,12.50
2023-05-15T23:32:24.596Z,12.40
2023-05-15T23:34:54.430Z,12.45
2023-05-15T23:37:22.360Z,12.34
2023-05-15T23:39:50.346Z,12.45
2023-05-15T23:42:18.256Z,12.42
2023-05-15T23:44:47.525Z,12.16
2023-05-15T23:47:16.266Z,12.33
2023-05-15T23:49:44.219Z,12.01
2023-05-15T23:52:12.267Z,11.77
2023-05-15T23:54:40.765Z,11.66
2023-05-15T23:57:08.693Z,11.90
2023-05-15T23:59:36.587Z,11.97
